createdAt,value
2022-10-03T00:00:21.599Z,99.90
2022-10-03T00:03:17.103Z,99.90
2022-10-03T00:06:10.060Z,99.90
2022-10-03T00:08:48.482Z,99.90
2022-10-03T00:11:43.218Z,99.90
2022-10-03T00:14:29.087Z,99.90
2022-10-03T00:17:15.242Z,99.90
2022-10-03T00:20:02.979Z,99.90
2022-10-03T00:22:53.409Z,99.90
2022-10-03T00:25:26.298Z,99.90
2022-10-03T00:27:53.038Z,99.90
2022-10-03T00:30:22.949Z,99.90
2022-10-03T00:33:14.471Z,99.90
2022-10-03T00:35:43.978Z,99.90
2022-10-03T00:38:38.469Z,99.90
2022-10-03T00:41:26.897Z,99.90
2022-10-03T00:44:26.261Z,99.90
2022-10-03T00:47:10.890Z,99.90
2022-10-03T00:50:07.348Z,99.90
2022-10-03T00:53:04.298Z,99.90
2022-10-03T00:56:07.740Z,99.90
2022-10-03T00:58:49.217Z,99.90
2022-10-03T01:01:34.959Z,99.90
2022-10-03T01:04:10.970Z,99.90
2022-10-03T01:06:59.127Z,99.90
2022-10-03T01:09:37.999Z,99.90
2022-10-03T01:12:21.713Z,99.90
2022-10-03T01:14:57.116Z,99.90
2022-10-03T01:17:35.005Z,99.90
2022-10-03T01:20:32.587Z,99.90
2022-10-03T01:23:08.665Z,99.90
2022-10-03T01:26:03.858Z,99.90
2022-10-03T01:29:04.571Z,99.90
2022-10-03T01:31:37.910Z,99.90
2022-10-03T01:34:11.599Z,99.90
2022-10-03T01:36:50.442Z,99.90
2022-10-03T01:39:50.447Z,99.90
2022-10-03T01:42:55.962Z,99.90
2022-10-03T01:45:26.230Z,99.90
2022-10-03T01:47:57.613Z,99.90
2022-10-03T01:50:30.239Z,99.90
2022-10-03T01:53:14.607Z,99.90
2022-10-03T01:55:56.452Z,99.90
2022-10-03T01:58:23.203Z,99.90
2022-10-03T02:01:22.514Z,99.90
2022-10-03T02:04:12.958Z,99.90
2022-10-03T02:07:10.941Z,99.90
2022-10-03T02:09:56.273Z,99.90
2022-10-03T02:12:35.736Z,99.90
2022-10-03T02:15:08.766Z,99.90
2022-10-03T02:18:12.898Z,99.90
2022-10-03T02:20:52.467Z,99.90
2022-10-03T02:23:33.925Z,99.90
2022-10-03T02:26:31.602Z,99.90
2022-10-03T02:29:31.249Z,99.90
2022-10-03T02:32:28.518Z,99.90
2022-10-03T02:35:08.431Z,99.90
2022-10-03T02:37:46.613Z,99.90
2022-10-03T02:40:51.234Z,99.90
2022-10-03T02:43:43.228Z,99.90
2022-10-03T02:46:47.455Z,99.90
2022-10-03T02:49:51.292Z,99.90
2022-10-03T02:52:24.301Z,99.90
2022-10-03T02:55:16.370Z,99.90
2022-10-03T02:58:02.371Z,99.90
2022-10-03T03:01:10.424Z,99.90
2022-10-03T03:03:43.446Z,99.90
2022-10-03T03:06:41.224Z,99.90
2022-10-03T03:09:34.223Z,99.90
2022-10-03T03:12:24.752Z,99.90
2022-10-03T03:15:12.589Z,99.90
2022-10-03T03:17:54.536Z,99.90
2022-10-03T03:20:24.348Z,99.90
2022-10-03T03:23:28.460Z,99.90
2022-10-03T03:26:13.695Z,99.90
2022-10-03T03:28:57.522Z,99.90
2022-10-03T03:31:54.818Z,99.90
2022-10-03T03:34:29.523Z,99.90
2022-10-03T03:37:19.892Z,99.90
2022-10-03T03:39:49.484Z,99.90
2022-10-03T03:42:47.240Z,99.90
2022-10-03T03:45:43.126Z,99.90
2022-10-03T03:48:23.908Z,99.90
2022-10-03T03:51:01.134Z,99.90
2022-10-03T03:53:43.230Z,99.90
2022-10-03T03:56:17.554Z,99.90
2022-10-03T03:59:02.949Z,99.90
2022-10-03T04:01:43.926Z,99.90
2022-10-03T04:04:32.699Z,99.90
2022-10-03T04:07:42.634Z,99.90
2022-10-03T04:10:24.375Z,99.90
2022-10-03T04:13:09.972Z,99.90
2022-10-03T04:15:39.459Z,99.90
2022-10-03T04:18:42.710Z,99.90
2022-10-03T04:21:18.939Z,99.90
2022-10-03T04:23:58.188Z,99.90
2022-10-03T04:26:35.303Z,99.90
2022-10-03T04:29:27.423Z,99.90
2022-10-03T04:32:16.118Z,99.90
2022-10-03T04:35:03.607Z,99.90
2022-10-03T04:37:47.141Z,99.90
2022-10-03T04:40:22.665Z,99.90
2022-10-03T04:42:49.370Z,99.90
2022-10-03T04:45:48.343Z,99.90
2022-10-03T04:48:29.015Z,99.90
2022-10-03T04:51:16.068Z,99.90
2022-10-03T04:53:50.518Z,99.90
2022-10-03T04:56:48.405Z,99.90
2022-10-03T04:59:34.369Z,99.90
2022-10-03T05:02:25.566Z,99.90
2022-10-03T05:05:23.146Z,99.90
2022-10-03T05:08:49.733Z,99.90
2022-10-03T05:11:45.431Z,99.90
2022-10-03T05:15:03.902Z,99.90
2022-10-03T05:17:48.698Z,99.90
2022-10-03T05:20:27.299Z,99.90
2022-10-03T05:23:27.034Z,99.90
2022-10-03T05:26:46.312Z,99.90
2022-10-03T05:29:31.733Z,99.90
2022-10-03T05:32:10.302Z,99.90
2022-10-03T05:34:55.786Z,99.90
2022-10-03T05:37:43.770Z,99.90
2022-10-03T05:40:18.818Z,99.90
2022-10-03T05:42:52.478Z,99.90
2022-10-03T05:46:00.724Z,99.90
2022-10-03T05:48:49.155Z,99.90
2022-10-03T05:51:37.146Z,99.90
2022-10-03T05:54:06.800Z,99.90
2022-10-03T05:56:42.433Z,99.90
2022-10-03T05:59:43.912Z,99.90
2022-10-03T06:02:32.954Z,99.90
2022-10-03T06:05:25.266Z,99.90
2022-10-03T06:08:26.935Z,99.90
2022-10-03T06:11:15.300Z,99.90
2022-10-03T06:14:06.078Z,99.90
2022-10-03T06:17:03.197Z,99.90
2022-10-03T06:20:08.585Z,99.90
2022-10-03T06:23:12.777Z,99.90
2022-10-03T06:26:15.435Z,99.90
2022-10-03T06:29:00.812Z,99.90
2022-10-03T06:31:47.195Z,99.90
2022-10-03T06:34:35.452Z,99.90
2022-10-03T06:37:40.266Z,99.90
2022-10-03T06:40:33.083Z,99.90
2022-10-03T06:43:00.143Z,99.90
2022-10-03T06:45:49.586Z,99.90
2022-10-03T06:48:25.690Z,99.90
2022-10-03T06:51:01.283Z,99.90
2022-10-03T06:53:52.295Z,99.90
2022-10-03T06:56:55.666Z,99.90
2022-10-03T06:59:45.066Z,99.90
2022-10-03T07:02:33.827Z,99.90
2022-10-03T07:05:25.340Z,99.90
2022-10-03T07:08:18.189Z,99.90
2022-10-03T07:11:18.745Z,99.90
2022-10-03T07:14:09.116Z,99.90
2022-10-03T07:16:50.208Z,99.90
2022-10-03T07:19:42.723Z,99.90
2022-10-03T07:22:30.347Z,99.90
2022-10-03T07:25:21.404Z,99.90
2022-10-03T07:28:23.682Z,99.90
2022-10-03T07:31:02.786Z,99.90
2022-10-03T07:34:11.440Z,99.90
2022-10-03T07:37:38.537Z,99.90
2022-10-03T07:40:20.234Z,99.90
2022-10-03T07:43:09.070Z,99.90
2022-10-03T07:45:45.720Z,99.90
2022-10-03T07:48:46.072Z,99.90
2022-10-03T07:51:26.648Z,99.90
2022-10-03T07:54:14.560Z,99.90
2022-10-03T07:57:20.145Z,99.90
2022-10-03T08:00:06.763Z,99.90
2022-10-03T08:03:03.350Z,99.90
2022-10-03T08:05:49.639Z,99.90
2022-10-03T08:08:55.150Z,99.90
2022-10-03T08:11:33.825Z,99.90
2022-10-03T08:14:28.024Z,99.90
2022-10-03T08:17:35.324Z,99.90
2022-10-03T08:20:32.860Z,99.90
2022-10-03T08:23:30.728Z,99.90
2022-10-03T08:26:15.795Z,99.90
2022-10-03T08:28:54.594Z,99.90
2022-10-03T08:31:53.738Z,99.90
2022-10-03T08:34:42.274Z,99.90
2022-10-03T08:37:33.957Z,99.90
2022-10-03T08:40:38.000Z,99.90
2022-10-03T08:43:23.057Z,99.90
2022-10-03T08:45:52.837Z,99.90
2022-10-03T08:48:50.427Z,99.90
2022-10-03T08:51:48.183Z,99.90
2022-10-03T08:54:42.732Z,99.90
2022-10-03T08:57:15.086Z,99.90
2022-10-03T09:00:05.950Z,99.90
2022-10-03T09:02:35.871Z,99.90
2022-10-03T09:05:24.221Z,99.90
2022-10-03T09:08:31.514Z,99.90
2022-10-03T09:11:33.122Z,99.90
2022-10-03T09:14:18.869Z,99.90
2022-10-03T09:17:26.533Z,99.90
2022-10-03T09:20:27.283Z,99.90
2022-10-03T09:23:32.311Z,99.90
2022-10-03T09:26:17.537Z,99.90
2022-10-03T09:29:06.424Z,99.90
2022-10-03T09:31:42.706Z,99.90
2022-10-03T09:34:41.016Z,99.90
2022-10-03T09:37:41.612Z,99.90
2022-10-03T09:40:25.428Z,99.90
2022-10-03T09:43:04.973Z,99.90
2022-10-03T09:45:40.701Z,99.90
2022-10-03T09:48:33.446Z,99.90
2022-10-03T09:51:29.912Z,99.90
2022-10-03T09:54:45.150Z,99.90
2022-10-03T09:57:30.081Z,99.90
2022-10-03T10:00:08.808Z,99.90
2022-10-03T10:02:44.751Z,99.90
2022-10-03T10:05:49.016Z,99.90
2022-10-03T10:08:27.500Z,99.90
2022-10-03T10:11:15.814Z,99.90
2022-10-03T10:14:08.669Z,99.90
2022-10-03T10:17:02.373Z,99.90
2022-10-03T10:20:07.390Z,99.90
2022-10-03T10:22:49.993Z,99.90
2022-10-03T10:25:52.159Z,99.90
2022-10-03T10:29:08.806Z,99.90
2022-10-03T10:31:45.247Z,99.90
2022-10-03T10:34:49.691Z,99.90
2022-10-03T10:37:19.291Z,99.90
2022-10-03T10:39:53.275Z,99.90
2022-10-03T10:42:38.633Z,99.90
2022-10-03T10:45:14.667Z,99.90
2022-10-03T10:48:16.898Z,99.90
2022-10-03T10:51:05.265Z,99.90
2022-10-03T10:54:09.290Z,99.90
2022-10-03T10:56:50.894Z,99.90
2022-10-03T10:59:56.981Z,99.90
2022-10-03T11:02:26.823Z,99.90
2022-10-03T11:05:17.152Z,99.90
2022-10-03T11:07:56.278Z,99.90
2022-10-03T11:10:36.543Z,99.90
2022-10-03T11:13:32.190Z,99.90
2022-10-03T11:16:39.855Z,99.90
2022-10-03T11:19:35.359Z,99.90
2022-10-03T11:22:39.852Z,99.90
2022-10-03T11:25:09.727Z,99.90
2022-10-03T11:27:42.064Z,99.90
2022-10-03T11:30:32.971Z,99.90
2022-10-03T11:33:09.009Z,99.90
2022-10-03T11:35:59.654Z,99.90
2022-10-03T11:38:34.575Z,99.90
2022-10-03T11:41:28.374Z,99.90
2022-10-03T11:44:01.808Z,99.90
2022-10-03T11:46:44.870Z,99.90
2022-10-03T11:49:18.032Z,99.90
2022-10-03T11:52:06.135Z,99.90
2022-10-03T11:54:43.936Z,99.90
2022-10-03T11:57:39.977Z,99.90
2022-10-03T12:00:19.970Z,99.90
2022-10-03T12:03:01.851Z,99.90
2022-10-03T12:06:18.085Z,99.90
2022-10-03T12:09:01.195Z,99.90
2022-10-03T12:11:54.006Z,99.90
2022-10-03T12:14:29.107Z,99.90
2022-10-03T12:17:12.530Z,99.90
2022-10-03T12:19:54.502Z,99.90
2022-10-03T12:22:50.186Z,99.90
2022-10-03T12:25:21.367Z,99.90
2022-10-03T12:28:18.166Z,99.90
2022-10-03T12:31:01.439Z,99.90
2022-10-03T12:33:49.879Z,99.90
2022-10-03T12:36:32.365Z,99.90
2022-10-03T12:39:37.391Z,99.90
2022-10-03T12:42:38.999Z,99.90
2022-10-03T12:45:08.888Z,99.90
2022-10-03T12:47:56.589Z,99.90
2022-10-03T12:50:55.090Z,99.90
2022-10-03T12:53:28.103Z,99.90
2022-10-03T12:56:11.869Z,99.90
2022-10-03T12:58:54.756Z,99.90
2022-10-03T13:01:43.172Z,99.90
2022-10-03T13:04:26.317Z,99.90
2022-10-03T13:07:15.645Z,99.90
2022-10-03T13:10:05.763Z,99.90
2022-10-03T13:12:53.087Z,99.40
2022-10-03T13:16:04.658Z,98.80
2022-10-03T13:18:38.425Z,98.60
2022-10-03T13:21:43.963Z,98.60
2022-10-03T13:24:29.730Z,98.70
2022-10-03T13:26:59.365Z,98.50
2022-10-03T13:29:38.975Z,99.30
2022-10-03T13:32:31.932Z,99.10
2022-10-03T13:35:27.822Z,99.90
2022-10-03T13:38:04.567Z,99.90
2022-10-03T13:40:36.318Z,99.90
2022-10-03T13:43:09.852Z,99.70
2022-10-03T13:45:43.755Z,99.90
2022-10-03T13:48:23.913Z,99.90
2022-10-03T13:51:01.962Z,99.90
2022-10-03T13:53:59.949Z,99.90
2022-10-03T13:56:36.376Z,99.90
2022-10-03T13:59:25.248Z,99.90
2022-10-03T14:01:56.964Z,99.90
2022-10-03T14:04:29.159Z,99.90
2022-10-03T14:07:26.732Z,99.90
2022-10-03T14:10:18.680Z,99.90
2022-10-03T14:12:56.941Z,99.90
2022-10-03T14:15:51.520Z,99.90
2022-10-03T14:18:55.991Z,99.90
2022-10-03T14:21:47.986Z,99.90
2022-10-03T14:24:39.319Z,99.90
2022-10-03T14:27:27.785Z,99.90
2022-10-03T14:30:07.219Z,99.90
2022-10-03T14:33:18.297Z,99.90
2022-10-03T14:36:03.546Z,99.90
2022-10-03T14:39:02.487Z,99.90
2022-10-03T14:41:41.977Z,99.90
2022-10-03T14:44:22.881Z,99.90
2022-10-03T14:47:00.806Z,99.90
2022-10-03T14:52:43.391Z,99.90
2022-10-03T14:55:16.669Z,99.90
2022-10-03T14:58:09.840Z,99.90
2022-10-03T15:00:43.726Z,99.90
2022-10-03T15:03:18.133Z,99.90
2022-10-03T15:05:57.314Z,99.90
2022-10-03T15:08:47.766Z,99.90
2022-10-03T15:11:17.266Z,99.90
2022-10-03T15:13:51.056Z,99.90
2022-10-03T15:16:21.433Z,99.90
2022-10-03T15:19:09.989Z,99.90
2022-10-03T15:21:42.200Z,99.90
2022-10-03T15:24:14.699Z,99.90
2022-10-03T15:26:43.359Z,99.90
2022-10-03T15:29:16.537Z,99.90
2022-10-03T15:31:49.403Z,99.90
2022-10-03T15:34:27.168Z,99.90
2022-10-03T15:37:07.602Z,99.90
2022-10-03T15:39:43.993Z,99.90
2022-10-03T15:42:11.064Z,99.90
2022-10-03T15:44:45.479Z,99.90
2022-10-03T15:47:14.092Z,99.90
2022-10-03T15:49:48.765Z,99.90
2022-10-03T15:52:21.083Z,99.90
2022-10-03T15:55:11.140Z,99.90
2022-10-03T15:57:48.030Z,99.90
2022-10-03T16:00:31.340Z,99.90
2022-10-03T16:03:24.931Z,99.90
2022-10-03T16:06:14.376Z,99.90
2022-10-03T16:08:51.530Z,99.90
2022-10-03T16:11:41.918Z,99.90
2022-10-03T16:14:27.904Z,99.90
2022-10-03T16:17:04.276Z,99.90
2022-10-03T16:19:41.030Z,99.90
2022-10-03T16:22:50.845Z,99.90
2022-10-03T16:25:28.621Z,99.90
2022-10-03T16:28:19.475Z,99.90
2022-10-03T16:30:52.185Z,99.90
2022-10-03T16:33:26.835Z,99.90
2022-10-03T16:35:57.395Z,99.90
2022-10-03T16:38:40.732Z,99.90
2022-10-03T16:41:10.630Z,99.90
2022-10-03T16:43:38.126Z,99.90
2022-10-03T16:46:16.227Z,99.90
2022-10-03T16:49:03.127Z,99.90
2022-10-03T16:51:39.266Z,99.90
2022-10-03T16:54:11.067Z,99.90
2022-10-03T16:56:45.814Z,99.90
2022-10-03T16:59:18.254Z,99.90
2022-10-03T17:02:06.377Z,99.90
2022-10-03T17:04:40.124Z,99.90
2022-10-03T17:07:16.495Z,99.90
2022-10-03T17:09:51.539Z,99.90
2022-10-03T17:12:22.019Z,99.90
2022-10-03T17:14:55.782Z,99.90
2022-10-03T17:17:48.909Z,99.90
2022-10-03T17:20:55.126Z,99.90
2022-10-03T17:23:39.858Z,99.90
2022-10-03T17:26:10.163Z,99.90
2022-10-03T17:28:42.119Z,99.90
2022-10-03T17:31:28.683Z,99.90
2022-10-03T17:34:18.810Z,99.90
2022-10-03T17:36:55.005Z,99.90
2022-10-03T17:39:33.525Z,99.90
2022-10-03T17:42:18.379Z,99.90
2022-10-03T17:44:56.924Z,99.90
2022-10-03T17:47:57.478Z,99.90
2022-10-03T17:50:33.191Z,99.90
2022-10-03T17:53:01.570Z,99.90
2022-10-03T17:55:38.003Z,99.90
2022-10-03T17:58:11.895Z,99.90
2022-10-03T18:00:45.255Z,99.90
2022-10-03T18:03:43.001Z,99.90
2022-10-03T18:06:46.609Z,99.90
2022-10-03T18:09:17.149Z,99.90
2022-10-03T18:11:45.123Z,99.90
2022-10-03T18:14:24.404Z,99.90
2022-10-03T18:17:17.836Z,99.90
2022-10-03T18:19:59.969Z,99.90
2022-10-03T18:22:39.871Z,99.90
2022-10-03T18:25:54.116Z,99.90
2022-10-03T18:28:48.021Z,99.90
2022-10-03T18:31:26.701Z,99.90
2022-10-03T18:34:20.687Z,99.90
2022-10-03T18:36:50.765Z,99.90
2022-10-03T18:39:29.158Z,99.90
2022-10-03T18:42:01.449Z,99.90
2022-10-03T18:44:34.293Z,99.90
2022-10-03T18:47:11.167Z,99.90
2022-10-03T18:49:41.932Z,99.90
2022-10-03T18:52:34.824Z,99.90
2022-10-03T18:55:19.784Z,99.90
2022-10-03T18:58:01.599Z,99.90
2022-10-03T19:00:31.428Z,99.90
2022-10-03T19:03:17.542Z,99.90
2022-10-03T19:05:57.504Z,99.90
2022-10-03T19:08:38.704Z,99.90
2022-10-03T19:11:16.632Z,99.90
2022-10-03T19:13:58.714Z,99.90
2022-10-03T19:16:50.328Z,99.90
2022-10-03T19:19:44.490Z,99.90
2022-10-03T19:22:15.865Z,99.90
2022-10-03T19:24:58.407Z,99.90
2022-10-03T19:27:42.495Z,99.90
2022-10-03T19:30:11.794Z,99.90
2022-10-03T19:32:47.767Z,99.90
2022-10-03T19:35:20.311Z,99.90
2022-10-03T19:38:06.087Z,99.90
2022-10-03T19:40:56.191Z,99.90
2022-10-03T19:43:46.880Z,99.90
2022-10-03T19:46:32.332Z,99.90
2022-10-03T19:49:05.075Z,99.90
2022-10-03T19:51:34.745Z,99.90
2022-10-03T19:54:11.244Z,99.90
2022-10-03T19:56:38.349Z,99.90
2022-10-03T19:59:16.107Z,99.90
2022-10-03T20:01:49.329Z,99.90
2022-10-03T20:04:32.254Z,99.90
2022-10-03T20:06:59.515Z,99.90
2022-10-03T20:09:28.351Z,99.90
2022-10-03T20:12:15.325Z,99.90
2022-10-03T20:14:42.384Z,99.90
2022-10-03T20:17:20.642Z,99.90
2022-10-03T20:20:09.647Z,99.90
2022-10-03T20:22:37.413Z,99.90
2022-10-03T20:25:21.261Z,99.90
2022-10-03T20:27:54.363Z,99.90
2022-10-03T20:30:35.075Z,99.90
2022-10-03T20:33:03.022Z,99.90
2022-10-03T20:35:42.085Z,99.90
2022-10-03T20:38:26.550Z,99.90
2022-10-03T20:41:05.771Z,99.90
2022-10-03T20:44:00.332Z,99.90
2022-10-03T20:46:41.831Z,99.90
2022-10-03T20:49:30.227Z,99.90
2022-10-03T20:52:00.265Z,99.90
2022-10-03T20:54:35.470Z,99.90
2022-10-03T20:57:28.120Z,99.90
2022-10-03T21:00:23.237Z,99.90
2022-10-03T21:03:00.254Z,99.90
2022-10-03T21:05:35.939Z,99.90
2022-10-03T21:08:32.203Z,99.90
2022-10-03T21:11:02.191Z,99.90
2022-10-03T21:13:43.382Z,99.90
2022-10-03T21:16:26.916Z,99.90
2022-10-03T21:18:59.198Z,99.90
2022-10-03T21:21:40.997Z,99.90
2022-10-03T21:24:27.349Z,99.90
2022-10-03T21:27:01.535Z,99.90
2022-10-03T21:29:30.036Z,99.90
2022-10-03T21:32:14.258Z,99.90
2022-10-03T21:35:01.341Z,99.90
2022-10-03T21:37:55.396Z,99.90
2022-10-03T21:40:29.267Z,99.90
2022-10-03T21:43:14.101Z,99.90
2022-10-03T21:46:29.055Z,99.90
2022-10-03T21:49:23.679Z,99.90
2022-10-03T21:51:52.060Z,99.90
2022-10-03T21:54:49.581Z,99.90
2022-10-03T21:57:44.140Z,99.90
2022-10-03T22:00:13.331Z,99.90
2022-10-03T22:02:53.425Z,99.90
2022-10-03T22:05:53.644Z,99.90
2022-10-03T22:08:39.948Z,99.90
2022-10-03T22:11:22.064Z,99.90
2022-10-03T22:13:59.075Z,99.90
2022-10-03T22:16:48.966Z,99.90
2022-10-03T22:19:40.721Z,99.90
2022-10-03T22:22:30.040Z,99.90
2022-10-03T22:25:11.653Z,99.90
2022-10-03T22:27:56.722Z,99.90
2022-10-03T22:30:23.866Z,99.90
2022-10-03T22:33:18.877Z,99.90
2022-10-03T22:35:55.308Z,99.90
2022-10-03T22:38:26.875Z,99.90
2022-10-03T22:40:56.046Z,99.90
2022-10-03T22:43:23.963Z,99.90
2022-10-03T22:45:53.143Z,99.90
2022-10-03T22:48:26.015Z,99.90
2022-10-03T22:50:54.059Z,99.90
2022-10-03T22:53:25.988Z,99.90
2022-10-03T22:55:58.444Z,99.90
2022-10-03T22:58:27.841Z,99.90
2022-10-03T23:00:58.312Z,99.90
2022-10-03T23:03:31.124Z,99.90
2022-10-03T23:06:32.847Z,99.90
2022-10-03T23:09:08.702Z,99.90
2022-10-03T23:11:38.438Z,99.90
2022-10-03T23:14:34.832Z,99.90
2022-10-03T23:17:25.477Z,99.90
2022-10-03T23:20:22.905Z,99.90
2022-10-03T23:22:55.119Z,99.90
2022-10-03T23:25:25.933Z,99.90
2022-10-03T23:28:25.183Z,99.90
2022-10-03T23:30:54.137Z,99.90
2022-10-03T23:33:33.075Z,99.90
2022-10-03T23:36:21.473Z,99.90
2022-10-03T23:38:48.250Z,99.90
2022-10-03T23:41:31.395Z,99.90
2022-10-03T23:43:59.003Z,99.90
2022-10-03T23:46:29.991Z,99.90
2022-10-03T23:49:00.287Z,99.90
2022-10-03T23:51:34.664Z,99.90
2022-10-03T23:54:05.425Z,99.90
2022-10-03T23:56:41.219Z,99.90
2022-10-03T23:59:14.215Z,99.90
